Time;durP1;ratioP1;P1;durP2;ratioP2;P2;SDS_P1;SDS_P2;PMS_P1;PMS_P2;Temp;Humidity;BMP_temperature;BMP_pressure;BME280_temperature;BME280_humidity;BME280_pressure;Samples;Min_cycle;Max_cycle;Signal;HPM_P1;HPM_P2
2021/06/08 00:00:28;;;;;;;4.32;4.03;;;;;;;;;;5085207;28;20431;-76
2021/06/08 00:02:54;;;;;;;4.20;3.90;;;;;;;;;;5085699;28;20176;-77
2021/06/08 00:05:20;;;;;;;3.50;3.20;;;;;;;;;;5084788;28;20176;-76
2021/06/08 00:07:46;;;;;;;4.35;3.95;;;;;;;;;;5084735;28;20267;-77
2021/06/08 00:10:12;;;;;;;4.15;3.85;;;;;;;;;;5081981;28;20200;-76
2021/06/08 00:12:38;;;;;;;4.05;3.75;;;;;;;;;;5082939;28;20180;-77
2021/06/08 00:15:05;;;;;;;3.87;3.47;;;;;;;;;;5083915;28;20186;-77
2021/06/08 00:17:31;;;;;;;5.28;4.70;;;;;;;;;;5085823;28;20414;-77
2021/06/08 00:19:58;;;;;;;4.43;4.03;;;;;;;;;;5083678;28;20313;-77
2021/06/08 00:22:24;;;;;;;3.78;3.58;;;;;;;;;;5081382;28;20576;-77
2021/06/08 00:24:50;;;;;;;3.72;3.42;;;;;;;;;;5071330;28;20266;-77
2021/06/08 00:27:16;;;;;;;4.45;4.05;;;;;;;;;;5083102;28;20594;-77
2021/06/08 00:29:42;;;;;;;4.30;3.97;;;;;;;;;;5086050;28;20203;-77
2021/06/08 00:32:08;;;;;;;3.70;3.40;;;;;;;;;;5082845;28;20435;-77
2021/06/08 00:34:34;;;;;;;4.47;3.95;;;;;;;;;;5083951;28;20426;-77
2021/06/08 00:37:00;;;;;;;4.23;3.70;;;;;;;;;;5082604;28;20204;-77
2021/06/08 00:39:26;;;;;;;4.85;3.63;;;;;;;;;;5083875;28;20473;-77
2021/06/08 00:41:52;;;;;;;4.05;3.75;;;;;;;;;;5085417;28;20176;-77
2021/06/08 00:44:18;;;;;;;4.80;4.40;;;;;;;;;;5083869;28;20174;-77
2021/06/08 00:46:45;;;;;;;4.80;4.35;;;;;;;;;;5082470;28;20477;-77
2021/06/08 00:49:12;;;;;;;4.85;4.43;;;;;;;;;;5082892;28;20229;-77
2021/06/08 00:51:38;;;;;;;4.45;4.15;;;;;;;;;;5082790;28;20182;-77
2021/06/08 00:54:10;;;;;;;5.03;4.60;;;;;;;;;;5083722;28;20186;-77
2021/06/08 00:56:37;;;;;;;5.20;4.80;;;;;;;;;;5085934;28;20198;-77
2021/06/08 00:59:03;;;;;;;4.50;4.15;;;;;;;;;;5081972;28;20645;-77
2021/06/08 01:01:29;;;;;;;4.88;4.40;;;;;;;;;;5082725;28;20254;-77
2021/06/08 01:03:55;;;;;;;5.38;4.95;;;;;;;;;;5082255;28;20208;-77
2021/06/08 01:06:21;;;;;;;4.20;3.80;;;;;;;;;;5082100;28;20188;-77
2021/06/08 01:08:47;;;;;;;4.40;4.00;;;;;;;;;;5084439;28;20520;-77
2021/06/08 01:11:14;;;;;;;3.80;3.50;;;;;;;;;;5083028;28;20217;-77
2021/06/08 01:13:43;;;;;;;5.80;4.05;;;;;;;;;;5080646;28;20185;-77
2021/06/08 01:16:10;;;;;;;3.92;3.60;;;;;;;;;;5082016;28;20210;-77
2021/06/08 01:18:36;;;;;;;4.07;3.78;;;;;;;;;;5081635;28;20550;-77
2021/06/08 01:21:09;;;;;;;4.20;3.88;;;;;;;;;;5082497;28;20198;-77
2021/06/08 01:23:36;;;;;;;3.80;3.45;;;;;;;;;;5099844;28;20422;-77
2021/06/08 01:26:03;;;;;;;3.50;3.22;;;;;;;;;;5080295;28;20187;-77
2021/06/08 01:28:30;;;;;;;5.53;4.60;;;;;;;;;;5080918;28;20192;-77
2021/06/08 01:30:56;;;;;;;4.47;3.90;;;;;;;;;;5082574;28;20279;-77
2021/06/08 01:33:24;;;;;;;5.00;4.50;;;;;;;;;;5083295;28;20225;-77
2021/06/08 01:35:51;;;;;;;6.00;4.60;;;;;;;;;;5084394;28;20172;-77
2021/06/08 01:38:17;;;;;;;7.82;4.63;;;;;;;;;;5083523;28;20195;-77
2021/06/08 01:40:43;;;;;;;6.85;4.55;;;;;;;;;;5081755;28;20190;-77
2021/06/08 01:43:09;;;;;;;5.80;4.50;;;;;;;;;;5081353;28;20184;-77
2021/06/08 01:45:35;;;;;;;4.65;4.00;;;;;;;;;;5082663;28;20194;-77
2021/06/08 01:48:02;;;;;;;5.35;4.40;;;;;;;;;;5081443;28;20222;-77
2021/06/08 01:50:28;;;;;;;6.25;4.90;;;;;;;;;;5083776;28;20214;-77
2021/06/08 01:52:55;;;;;;;4.80;4.38;;;;;;;;;;5080584;28;20180;-77
2021/06/08 01:55:30;;;;;;;4.75;4.35;;;;;;;;;;5081592;28;20210;-77
2021/06/08 01:58:05;;;;;;;4.50;4.10;;;;;;;;;;5070851;28;20174;-77
2021/06/08 02:00:30;;;;;;;4.40;4.00;;;;;;;;;;5081351;28;20176;-77
2021/06/08 02:03:09;;;;;;;4.20;3.90;;;;;;;;;;5083889;28;20178;-77
2021/06/08 02:05:53;;;;;;;4.45;4.05;;;;;;;;;;5082893;28;20479;-77
2021/06/08 02:08:24;;;;;;;4.97;4.43;;;;;;;;;;5083393;28;20192;-78
2021/06/08 02:10:53;;;;;;;4.35;4.03;;;;;;;;;;5079812;28;20292;-77
2021/06/08 02:13:31;;;;;;;4.50;4.10;;;;;;;;;;5080908;28;20172;-77
2021/06/08 02:16:00;;;;;;;5.47;5.00;;;;;;;;;;5079176;28;20181;-77
2021/06/08 02:18:29;;;;;;;6.28;4.22;;;;;;;;;;5082525;28;20176;-77
2021/06/08 02:20:57;;;;;;;4.50;4.10;;;;;;;;;;5083375;28;20222;-77
2021/06/08 02:23:24;;;;;;;4.95;4.55;;;;;;;;;;5080918;28;20212;-77
2021/06/08 02:25:51;;;;;;;3.88;3.60;;;;;;;;;;5082155;28;20498;-77
2021/06/08 02:28:19;;;;;;;5.78;4.30;;;;;;;;;;5079321;28;20188;-77
2021/06/08 02:30:47;;;;;;;4.93;4.13;;;;;;;;;;5082597;28;20204;-77
2021/06/08 02:33:14;;;;;;;4.75;4.35;;;;;;;;;;5090299;28;20171;-77
2021/06/08 02:35:40;;;;;;;6.15;4.38;;;;;;;;;;5095901;28;20203;-77
2021/06/08 02:38:07;;;;;;;5.38;4.88;;;;;;;;;;5078676;28;20185;-77
2021/06/08 02:40:33;;;;;;;5.32;4.45;;;;;;;;;;5079242;28;20217;-77
2021/06/08 02:43:00;;;;;;;4.63;4.22;;;;;;;;;;5080268;28;20191;-77
2021/06/08 02:45:27;;;;;;;5.68;4.63;;;;;;;;;;5080452;28;20640;-77
2021/06/08 02:47:53;;;;;;;5.15;4.55;;;;;;;;;;5082250;28;20224;-77
2021/06/08 02:50:22;;;;;;;5.93;4.32;;;;;;;;;;5082557;28;20283;-77
2021/06/08 02:52:53;;;;;;;4.47;4.15;;;;;;;;;;5079801;28;20263;-77
2021/06/08 02:55:20;;;;;;;5.45;4.57;;;;;;;;;;5078777;28;20211;-78
2021/06/08 02:57:46;;;;;;;4.22;3.92;;;;;;;;;;5081783;28;20203;-78
2021/06/08 03:00:12;;;;;;;4.47;4.13;;;;;;;;;;5080759;28;20176;-77
2021/06/08 03:02:40;;;;;;;5.35;4.47;;;;;;;;;;5084110;28;20179;-77
2021/06/08 03:05:11;;;;;;;4.80;4.40;;;;;;;;;;5079168;28;20180;-78
2021/06/08 03:07:39;;;;;;;4.70;4.10;;;;;;;;;;5078435;28;20233;-78
2021/06/08 03:10:08;;;;;;;4.30;3.92;;;;;;;;;;5078484;28;20208;-78
2021/06/08 03:12:38;;;;;;;5.22;4.40;;;;;;;;;;5080115;28;20556;-78
2021/06/08 03:15:06;;;;;;;5.38;4.60;;;;;;;;;;5077961;28;20272;-77
2021/06/08 03:17:33;;;;;;;5.20;4.80;;;;;;;;;;5096864;28;20169;-77
2021/06/08 03:20:04;;;;;;;4.22;3.80;;;;;;;;;;5079924;28;20216;-77
2021/06/08 03:22:30;;;;;;;4.90;4.38;;;;;;;;;;5079811;28;20306;-78
2021/06/08 03:24:58;;;;;;;4.70;4.30;;;;;;;;;;5077747;28;20192;-77
2021/06/08 03:27:24;;;;;;;6.45;4.93;;;;;;;;;;5081742;28;20189;-77
2021/06/08 03:29:51;;;;;;;4.60;4.20;;;;;;;;;;5080676;28;20251;-77
2021/06/08 03:32:18;;;;;;;4.25;3.85;;;;;;;;;;5081938;28;20166;-77
2021/06/08 03:34:44;;;;;;;4.88;4.50;;;;;;;;;;5079883;28;20220;-78
2021/06/08 03:37:11;;;;;;;5.03;4.63;;;;;;;;;;5078761;28;20535;-77
2021/06/08 03:39:38;;;;;;;5.55;4.75;;;;;;;;;;5078465;28;20186;-77
2021/06/08 03:42:05;;;;;;;3.90;3.60;;;;;;;;;;5081052;28;20184;-77
2021/06/08 03:44:31;;;;;;;4.68;3.65;;;;;;;;;;5083648;28;20164;-77
2021/06/08 03:46:57;;;;;;;4.15;3.85;;;;;;;;;;5078797;28;20253;-77
2021/06/08 03:49:23;;;;;;;5.82;4.72;;;;;;;;;;5078225;28;20216;-77
2021/06/08 03:51:50;;;;;;;7.45;4.28;;;;;;;;;;5079915;28;20657;-78
2021/06/08 03:54:16;;;;;;;6.18;5.78;;;;;;;;;;5078731;28;20584;-77
2021/06/08 03:56:45;;;;;;;7.50;5.30;;;;;;;;;;5082772;28;20364;-77
2021/06/08 03:59:11;;;;;;;4.32;3.90;;;;;;;;;;5091895;28;20507;-77
2021/06/08 04:01:38;;;;;;;4.97;4.57;;;;;;;;;;5079678;28;20172;-77
2021/06/08 04:04:05;;;;;;;4.38;3.97;;;;;;;;;;5079540;28;20183;-77
2021/06/08 04:06:31;;;;;;;4.97;4.47;;;;;;;;;;5081165;28;20204;-77
2021/06/08 04:08:57;;;;;;;4.50;4.13;;;;;;;;;;5079475;28;20202;-78
2021/06/08 04:11:23;;;;;;;5.18;4.68;;;;;;;;;;5091378;28;20263;-78
2021/06/08 04:13:54;;;;;;;6.25;4.15;;;;;;;;;;5079766;28;20370;-78
2021/06/08 04:16:20;;;;;;;5.85;4.25;;;;;;;;;;5082752;28;20579;-78
2021/06/08 04:18:47;;;;;;;4.60;4.20;;;;;;;;;;5084407;28;20216;-78
2021/06/08 04:21:14;;;;;;;5.32;4.68;;;;;;;;;;5083503;28;20438;-78
2021/06/08 04:23:40;;;;;;;5.30;4.22;;;;;;;;;;5082544;28;20220;-77
2021/06/08 04:26:06;;;;;;;5.07;4.22;;;;;;;;;;5082236;28;20192;-78
2021/06/08 04:28:32;;;;;;;5.20;4.45;;;;;;;;;;5082615;28;20549;-78
2021/06/08 04:30:58;;;;;;;7.50;4.00;;;;;;;;;;5081716;28;20205;-77
2021/06/08 04:33:28;;;;;;;5.53;5.05;;;;;;;;;;5083504;28;20171;-77
2021/06/08 04:35:55;;;;;;;5.32;4.93;;;;;;;;;;5098697;28;20214;-77
2021/06/08 04:38:22;;;;;;;5.20;4.70;;;;;;;;;;5083395;28;20181;-77
2021/06/08 04:40:50;;;;;;;6.60;5.18;;;;;;;;;;5082676;28;20176;-77
2021/06/08 04:43:20;;;;;;;9.73;8.65;;;;;;;;;;5081883;28;20188;-77
2021/06/08 04:45:46;;;;;;;10.98;8.80;;;;;;;;;;5082152;28;20199;-77
2021/06/08 04:48:12;;;;;;;18.83;12.90;;;;;;;;;;5077048;28;20192;-78
2021/06/08 04:50:38;;;;;;;7.73;6.00;;;;;;;;;;5084321;28;20481;-78
2021/06/08 04:53:05;;;;;;;7.45;5.43;;;;;;;;;;5080611;28;20473;-78
2021/06/08 04:55:31;;;;;;;5.60;5.07;;;;;;;;;;5080604;28;20643;-78
2021/06/08 04:57:57;;;;;;;6.25;4.82;;;;;;;;;;5082112;28;20289;-78
2021/06/08 05:00:29;;;;;;;6.90;5.28;;;;;;;;;;5082571;28;20182;-77
2021/06/08 05:02:56;;;;;;;5.13;4.70;;;;;;;;;;5084217;28;20183;-77
2021/06/08 05:05:23;;;;;;;5.95;5.05;;;;;;;;;;5084186;28;20179;-77
2021/06/08 05:08:13;;;;;;;5.30;4.80;;;;;;;;;;5079578;28;20182;-77
2021/06/08 05:10:42;;;;;;;4.55;4.00;;;;;;;;;;5079469;28;20233;-77
2021/06/08 05:13:11;;;;;;;5.22;4.80;;;;;;;;;;5081917;28;20636;-77
2021/06/08 05:15:39;;;;;;;7.00;5.15;;;;;;;;;;5081749;28;20239;-77
2021/06/08 05:18:10;;;;;;;6.10;5.03;;;;;;;;;;5083929;28;20181;-77
2021/06/08 05:20:39;;;;;;;5.68;5.20;;;;;;;;;;5084530;28;20177;-78
2021/06/08 05:23:06;;;;;;;5.13;4.63;;;;;;;;;;5081903;28;20196;-77
2021/06/08 05:25:32;;;;;;;7.53;6.88;;;;;;;;;;5081902;28;20212;-78
2021/06/08 05:27:59;;;;;;;6.15;5.65;;;;;;;;;;5082829;28;20189;-78
2021/06/08 05:30:25;;;;;;;5.95;5.28;;;;;;;;;;5080819;28;20206;-77
2021/06/08 05:32:51;;;;;;;5.72;5.22;;;;;;;;;;5084633;28;20174;-77
2021/06/08 05:35:24;;;;;;;8.68;5.40;;;;;;;;;;5083503;28;20424;-78
2021/06/08 05:37:50;;;;;;;6.18;5.65;;;;;;;;;;5080221;28;20269;-78
2021/06/08 05:40:17;;;;;;;8.18;6.35;;;;;;;;;;5081898;28;20198;-78
2021/06/08 05:42:43;;;;;;;6.35;5.85;;;;;;;;;;5081742;28;20185;-77
2021/06/08 05:45:09;;;;;;;7.57;6.88;;;;;;;;;;5082885;28;20190;-77
2021/06/08 05:47:36;;;;;;;9.18;6.75;;;;;;;;;;5083527;28;20305;-77
2021/06/08 05:50:02;;;;;;;7.20;6.50;;;;;;;;;;5080350;28;20200;-77
2021/06/08 05:52:28;;;;;;;8.50;7.22;;;;;;;;;;5080401;28;20183;-78
2021/06/08 05:54:55;;;;;;;9.73;7.65;;;;;;;;;;5081001;28;20172;-77
2021/06/08 05:57:21;;;;;;;7.95;7.15;;;;;;;;;;5081551;28;20403;-77
2021/06/08 05:59:48;;;;;;;12.60;8.35;;;;;;;;;;5082582;28;20176;-77
2021/06/08 06:02:15;;;;;;;9.15;7.88;;;;;;;;;;5082918;28;20180;-77
2021/06/08 06:04:43;;;;;;;8.82;7.93;;;;;;;;;;5081075;28;20176;-77
2021/06/08 06:07:09;;;;;;;8.18;7.32;;;;;;;;;;5080070;28;20224;-77
2021/06/08 06:09:35;;;;;;;10.27;6.88;;;;;;;;;;5080305;28;20207;-77
2021/06/08 06:12:01;;;;;;;7.82;7.00;;;;;;;;;;5082232;28;20234;-77
2021/06/08 06:14:28;;;;;;;8.98;7.00;;;;;;;;;;5093222;28;20176;-78
2021/06/08 06:16:55;;;;;;;7.97;7.18;;;;;;;;;;5080565;28;20188;-78
2021/06/08 06:19:27;;;;;;;9.70;7.72;;;;;;;;;;5080305;28;20244;-77
2021/06/08 06:21:54;;;;;;;8.52;7.68;;;;;;;;;;5082472;28;20703;-77
2021/06/08 06:24:20;;;;;;;9.40;8.30;;;;;;;;;;5080762;28;20216;-77
2021/06/08 06:26:46;;;;;;;10.85;8.60;;;;;;;;;;5083675;28;20258;-79
2021/06/08 06:29:13;;;;;;;10.10;8.48;;;;;;;;;;5081679;28;20168;-77
2021/06/08 06:31:43;;;;;;;9.88;8.00;;;;;;;;;;5079386;28;20172;-77
2021/06/08 06:34:10;;;;;;;10.48;7.68;;;;;;;;;;5077648;28;20192;-77
2021/06/08 06:36:37;;;;;;;12.20;7.85;;;;;;;;;;5080871;28;20194;-77
2021/06/08 06:39:09;;;;;;;9.18;8.27;;;;;;;;;;5080740;28;20203;-76
2021/06/08 06:41:40;;;;;;;8.98;8.07;;;;;;;;;;5096189;28;20188;-77
2021/06/08 06:44:07;;;;;;;9.27;8.32;;;;;;;;;;5079948;28;20181;-77
2021/06/08 06:46:33;;;;;;;13.32;8.20;;;;;;;;;;5077651;28;20208;-76
2021/06/08 06:48:59;;;;;;;9.70;8.70;;;;;;;;;;5079768;28;20180;-76
2021/06/08 06:51:25;;;;;;;13.48;9.35;;;;;;;;;;5070492;28;20232;-77
2021/06/08 06:53:54;;;;;;;11.02;8.70;;;;;;;;;;5078621;28;20191;-75
2021/06/08 06:56:21;;;;;;;11.63;7.25;;;;;;;;;;5078814;28;20177;-76
2021/06/08 06:58:47;;;;;;;10.68;8.43;;;;;;;;;;5080386;28;20176;-76
2021/06/08 07:01:13;;;;;;;12.80;9.43;;;;;;;;;;5081359;28;20177;-76
2021/06/08 07:03:42;;;;;;;10.93;9.82;;;;;;;;;;5080886;28;20195;-76
2021/06/08 07:06:09;;;;;;;13.18;10.40;;;;;;;;;;5077980;28;20666;-77
2021/06/08 07:08:38;;;;;;;11.95;8.88;;;;;;;;;;5081538;28;20212;-76
2021/06/08 07:11:04;;;;;;;12.32;10.52;;;;;;;;;;5080746;28;20192;-76
2021/06/08 07:13:32;;;;;;;13.90;10.35;;;;;;;;;;5090905;28;20514;-76
2021/06/08 07:15:58;;;;;;;13.63;9.80;;;;;;;;;;5088910;28;20196;-76
2021/06/08 07:18:24;;;;;;;12.10;9.60;;;;;;;;;;5080920;28;20176;-77
2021/06/08 07:20:50;;;;;;;15.48;9.07;;;;;;;;;;5080369;28;20169;-77
2021/06/08 07:23:20;;;;;;;8.90;8.00;;;;;;;;;;5080169;28;20187;-77
2021/06/08 07:25:47;;;;;;;13.77;10.10;;;;;;;;;;5080351;28;20223;-76
2021/06/08 07:28:13;;;;;;;16.67;10.05;;;;;;;;;;5072810;28;20240;-76
2021/06/08 07:30:41;;;;;;;12.70;9.88;;;;;;;;;;5074856;28;20685;-76
2021/06/08 07:33:16;;;;;;;11.88;8.70;;;;;;;;;;5074583;28;20568;-76
2021/06/08 07:35:53;;;;;;;9.80;8.20;;;;;;;;;;5076640;28;20171;-76
2021/06/08 07:38:20;;;;;;;13.00;9.27;;;;;;;;;;5091867;28;20181;-76
2021/06/08 07:40:58;;;;;;;15.95;11.60;;;;;;;;;;5076149;28;20216;-75
2021/06/08 07:43:26;;;;;;;15.15;11.48;;;;;;;;;;5079689;28;20191;-76
2021/06/08 07:45:52;;;;;;;13.93;10.07;;;;;;;;;;5083128;28;20215;-76
2021/06/08 07:48:22;;;;;;;13.38;10.43;;;;;;;;;;5080167;28;20184;-76
2021/06/08 07:50:50;;;;;;;12.80;10.40;;;;;;;;;;5084157;28;20293;-76
2021/06/08 07:53:19;;;;;;;10.20;9.20;;;;;;;;;;5083496;28;20182;-75
2021/06/08 07:55:46;;;;;;;12.15;10.70;;;;;;;;;;5082720;28;20975;-75
2021/06/08 07:58:12;;;;;;;13.73;12.32;;;;;;;;;;5080743;28;20177;-76
2021/06/08 08:00:39;;;;;;;13.35;10.93;;;;;;;;;;5084870;28;20254;-75
2021/06/08 08:05:50;;;;;;;12.10;10.88;;;;;;;;;;5083532;28;20234;-76
2021/06/08 08:08:19;;;;;;;11.68;10.45;;;;;;;;;;5084956;28;20178;-76
2021/06/08 08:10:45;;;;;;;12.95;8.70;;;;;;;;;;5082743;28;20211;-75
2021/06/08 08:13:12;;;;;;;13.18;11.48;;;;;;;;;;5083352;28;20638;-75
2021/06/08 08:15:38;;;;;;;11.27;9.75;;;;;;;;;;5083833;28;20185;-75
2021/06/08 08:18:05;;;;;;;15.05;12.20;;;;;;;;;;5084753;28;20200;-76
2021/06/08 08:20:46;;;;;;;16.17;13.90;;;;;;;;;;5085984;28;20177;-75
2021/06/08 08:23:12;;;;;;;14.20;12.45;;;;;;;;;;5084459;28;20242;-75
2021/06/08 08:25:38;;;;;;;13.10;11.45;;;;;;;;;;5080957;28;20193;-74
2021/06/08 08:28:05;;;;;;;15.45;11.05;;;;;;;;;;5082405;28;20193;-75
2021/06/08 08:30:31;;;;;;;11.73;9.73;;;;;;;;;;5083345;28;20195;-75
2021/06/08 08:32:57;;;;;;;12.05;10.85;;;;;;;;;;5084942;28;20170;-76
2021/06/08 08:35:25;;;;;;;11.27;9.25;;;;;;;;;;5086479;28;20174;-76
2021/06/08 08:37:51;;;;;;;9.00;8.20;;;;;;;;;;5078415;28;20174;-75
2021/06/08 08:40:17;;;;;;;10.53;9.00;;;;;;;;;;5082153;28;20176;-76
2021/06/08 08:42:45;;;;;;;9.02;7.80;;;;;;;;;;5083660;28;20437;-75
2021/06/08 08:45:12;;;;;;;12.45;11.07;;;;;;;;;;5083018;28;20284;-76
2021/06/08 08:47:38;;;;;;;9.52;8.02;;;;;;;;;;5085394;28;20282;-75
2021/06/08 08:50:05;;;;;;;9.07;7.20;;;;;;;;;;5080227;28;20223;-75
2021/06/08 08:52:32;;;;;;;12.75;9.98;;;;;;;;;;5079616;28;20185;-75
2021/06/08 08:54:59;;;;;;;13.60;9.82;;;;;;;;;;5081786;28;20189;-74
2021/06/08 08:57:26;;;;;;;27.50;10.00;;;;;;;;;;5081850;28;20389;-74
2021/06/08 08:59:58;;;;;;;14.57;10.40;;;;;;;;;;5085252;28;20173;-78
2021/06/08 09:02:24;;;;;;;19.23;10.97;;;;;;;;;;5081010;28;20386;-76
2021/06/08 09:04:50;;;;;;;12.33;9.97;;;;;;;;;;5081120;28;20438;-74
2021/06/08 09:07:17;;;;;;;10.33;9.43;;;;;;;;;;5080526;28;20446;-74
2021/06/08 09:09:43;;;;;;;21.75;8.60;;;;;;;;;;5081416;28;20466;-74
2021/06/08 09:12:09;;;;;;;6.93;5.87;;;;;;;;;;5081039;28;20188;-80
2021/06/08 09:14:35;;;;;;;8.00;6.20;;;;;;;;;;5095789;28;20441;-80
2021/06/08 09:17:01;;;;;;;9.87;6.27;;;;;;;;;;5080515;28;20439;-76
2021/06/08 09:19:29;;;;;;;5.43;4.80;;;;;;;;;;5082004;28;20397;-76
2021/06/08 09:21:56;;;;;;;5.23;4.67;;;;;;;;;;5083035;28;20663;-78
2021/06/08 09:24:23;;;;;;;3.97;3.67;;;;;;;;;;5080986;28;20471;-76
2021/06/08 09:26:49;;;;;;;6.10;4.90;;;;;;;;;;5083970;28;20413;-76
2021/06/08 09:29:28;;;;;;;4.50;4.10;;;;;;;;;;5084646;28;21111;-75
2021/06/08 09:32:13;;;;;;;4.53;4.13;;;;;;;;;;5081673;28;20419;-76
2021/06/08 09:34:59;;;;;;;5.10;4.60;;;;;;;;;;5080349;28;20405;-76
2021/06/08 09:37:36;;;;;;;6.27;5.13;;;;;;;;;;5081299;28;20508;-76
2021/06/08 09:40:15;;;;;;;4.53;4.10;;;;;;;;;;5083503;28;20438;-76
2021/06/08 09:42:41;;;;;;;4.70;3.93;;;;;;;;;;5082379;28;20420;-76
2021/06/08 09:45:11;;;;;;;7.13;4.20;;;;;;;;;;5082770;28;20447;-75
2021/06/08 09:47:38;;;;;;;6.27;4.57;;;;;;;;;;5085281;28;20477;-76
2021/06/08 09:50:24;;;;;;;5.50;4.53;;;;;;;;;;5080623;28;20461;-76
2021/06/08 09:52:50;;;;;;;5.00;4.50;;;;;;;;;;5075072;28;20440;-76
2021/06/08 09:55:16;;;;;;;5.50;5.00;;;;;;;;;;5080940;28;20490;-75
2021/06/08 09:57:42;;;;;;;4.13;3.80;;;;;;;;;;5081323;28;21069;-75
2021/06/08 10:00:08;;;;;;;4.27;3.83;;;;;;;;;;5080987;28;20435;-76
2021/06/08 10:02:38;;;;;;;6.00;5.50;;;;;;;;;;5084073;28;20418;-75
2021/06/08 10:05:23;;;;;;;4.43;4.00;;;;;;;;;;5081119;28;20437;-76
2021/06/08 10:08:09;;;;;;;4.83;4.43;;;;;;;;;;5081262;28;20426;-76
2021/06/08 10:10:38;;;;;;;3.77;3.53;;;;;;;;;;5080659;28;20492;-76
2021/06/08 10:13:04;;;;;;;3.60;3.30;;;;;;;;;;5080197;28;20469;-76
2021/06/08 10:15:32;;;;;;;3.03;2.70;;;;;;;;;;5081074;28;20430;-76
2021/06/08 10:18:03;;;;;;;3.53;3.23;;;;;;;;;;5083871;28;20420;-76
2021/06/08 10:20:32;;;;;;;4.50;3.80;;;;;;;;;;5083526;28;20413;-75
2021/06/08 10:23:02;;;;;;;3.37;3.03;;;;;;;;;;5078502;28;20421;-76
2021/06/08 10:25:28;;;;;;;3.40;2.97;;;;;;;;;;5078796;28;20422;-76
2021/06/08 10:27:54;;;;;;;4.13;3.17;;;;;;;;;;5079692;28;20447;-74
2021/06/08 10:30:20;;;;;;;3.10;2.90;;;;;;;;;;5080616;28;21057;-74
2021/06/08 10:32:47;;;;;;;2.50;2.30;;;;;;;;;;5083629;28;20434;-74
2021/06/08 10:35:13;;;;;;;3.20;3.00;;;;;;;;;;5079751;28;20896;-74
2021/06/08 10:37:39;;;;;;;3.17;2.90;;;;;;;;;;5080510;28;20465;-74
2021/06/08 10:40:05;;;;;;;2.43;2.33;;;;;;;;;;5079433;28;20451;-75
2021/06/08 10:42:32;;;;;;;2.37;2.17;;;;;;;;;;5081548;28;20415;-74
2021/06/08 10:45:05;;;;;;;2.60;2.40;;;;;;;;;;5082728;28;20872;-74
2021/06/08 10:47:51;;;;;;;2.67;2.47;;;;;;;;;;5082844;28;20463;-75
2021/06/08 10:50:23;;;;;;;2.87;2.67;;;;;;;;;;5083787;28;20489;-73
2021/06/08 10:52:50;;;;;;;2.73;2.53;;;;;;;;;;5079527;28;20442;-74
2021/06/08 10:55:18;;;;;;;4.10;2.47;;;;;;;;;;5078414;28;20476;-74
2021/06/08 10:57:48;;;;;;;3.10;2.60;;;;;;;;;;5081285;28;20437;-74
2021/06/08 11:00:39;;;;;;;2.73;2.53;;;;;;;;;;5080831;28;20426;-72
2021/06/08 11:03:06;;;;;;;3.30;3.07;;;;;;;;;;5078292;28;20477;-72
2021/06/08 11:05:44;;;;;;;4.10;2.60;;;;;;;;;;5093305;28;20423;-71
2021/06/08 11:08:10;;;;;;;4.43;3.00;;;;;;;;;;5081412;28;20426;-73
2021/06/08 11:10:44;;;;;;;3.80;3.17;;;;;;;;;;5079214;28;20473;-72
2021/06/08 11:15:43;;;;;;;3.20;2.93;;;;;;;;;;5080492;28;20437;-73
2021/06/08 11:18:18;;;;;;;2.63;2.40;;;;;;;;;;5081275;28;20406;-72
2021/06/08 11:20:45;;;;;;;3.20;2.90;;;;;;;;;;5079870;28;20942;-71
2021/06/08 11:23:11;;;;;;;3.50;3.20;;;;;;;;;;5081000;28;20420;-71
2021/06/08 11:25:38;;;;;;;2.73;2.60;;;;;;;;;;5078530;28;20403;-72
2021/06/08 11:28:10;;;;;;;2.63;2.43;;;;;;;;;;5078849;28;20442;-71
2021/06/08 11:30:38;;;;;;;4.00;2.70;;;;;;;;;;5069274;28;20458;-72
2021/06/08 11:33:08;;;;;;;3.27;2.83;;;;;;;;;;5080929;28;20405;-71
2021/06/08 11:35:41;;;;;;;2.83;2.63;;;;;;;;;;5082346;28;20426;-72
2021/06/08 11:38:08;;;;;;;3.37;2.43;;;;;;;;;;5077523;28;20446;-71
2021/06/08 11:40:42;;;;;;;2.33;2.13;;;;;;;;;;5079137;28;20449;-71
2021/06/08 11:43:11;;;;;;;2.67;2.47;;;;;;;;;;5081753;28;20458;-71
2021/06/08 11:45:38;;;;;;;2.17;1.80;;;;;;;;;;5079734;28;20409;-71
2021/06/08 11:48:04;;;;;;;2.60;2.40;;;;;;;;;;5081608;28;20477;-71
2021/06/08 11:50:42;;;;;;;3.20;2.00;;;;;;;;;;5083552;28;20441;-71
2021/06/08 11:53:12;;;;;;;2.90;1.90;;;;;;;;;;5077196;28;20454;-71
2021/06/08 11:55:38;;;;;;;2.50;2.23;;;;;;;;;;5073725;28;20518;-72
2021/06/08 11:58:04;;;;;;;2.13;1.93;;;;;;;;;;5078221;28;20452;-71
2021/06/08 12:00:52;;;;;;;1.93;1.83;;;;;;;;;;5077861;28;20444;-72
2021/06/08 12:03:32;;;;;;;2.40;2.30;;;;;;;;;;5078549;28;20434;-72
2021/06/08 12:06:01;;;;;;;2.27;1.97;;;;;;;;;;5079334;28;20446;-72
2021/06/08 12:08:28;;;;;;;2.23;2.03;;;;;;;;;;5080212;28;20408;-71
2021/06/08 12:10:54;;;;;;;2.73;2.53;;;;;;;;;;5079801;28;21012;-71
2021/06/08 12:13:31;;;;;;;2.57;2.13;;;;;;;;;;5077601;28;20462;-72
2021/06/08 12:15:57;;;;;;;2.73;2.53;;;;;;;;;;5070997;28;20433;-71
2021/06/08 12:18:37;;;;;;;2.60;2.13;;;;;;;;;;5079541;28;20802;-72
2021/06/08 12:21:09;;;;;;;2.03;1.93;;;;;;;;;;5080950;28;20425;-71
2021/06/08 12:23:36;;;;;;;2.23;2.13;;;;;;;;;;5081623;28;20459;-71
2021/06/08 12:26:05;;;;;;;2.67;2.47;;;;;;;;;;5078944;28;20435;-71
2021/06/08 12:28:31;;;;;;;2.10;1.90;;;;;;;;;;5080910;28;20432;-71
2021/06/08 12:31:17;;;;;;;2.90;1.87;;;;;;;;;;5079609;28;20493;-71
2021/06/08 12:33:44;;;;;;;2.23;2.13;;;;;;;;;;5094796;28;20434;-71
2021/06/08 12:36:10;;;;;;;2.10;1.90;;;;;;;;;;5080198;28;20434;-72
2021/06/08 12:38:44;;;;;;;3.73;2.30;;;;;;;;;;5085361;28;20407;-71
2021/06/08 12:41:12;;;;;;;2.03;1.70;;;;;;;;;;5084928;28;20442;-72
2021/06/08 12:43:50;;;;;;;1.83;1.73;;;;;;;;;;5082607;28;20429;-72
2021/06/08 12:46:30;;;;;;;2.70;1.90;;;;;;;;;;5081212;28;20993;-72
2021/06/08 12:49:02;;;;;;;2.40;2.20;;;;;;;;;;5087921;28;20434;-72
2021/06/08 12:51:41;;;;;;;2.40;1.80;;;;;;;;;;5082453;28;20482;-71
2021/06/08 12:54:09;;;;;;;2.53;2.33;;;;;;;;;;5081552;28;20443;-72
2021/06/08 12:56:35;;;;;;;2.33;2.20;;;;;;;;;;5085749;28;20813;-72
2021/06/08 12:59:02;;;;;;;2.80;2.60;;;;;;;;;;5082440;28;20434;-71
2021/06/08 13:01:28;;;;;;;3.37;2.07;;;;;;;;;;5082637;28;20437;-72
2021/06/08 13:03:55;;;;;;;2.17;1.40;;;;;;;;;;5081707;28;20438;-72
2021/06/08 13:06:21;;;;;;;2.47;2.10;;;;;;;;;;5082571;28;20443;-72
2021/06/08 13:08:48;;;;;;;2.10;2.00;;;;;;;;;;5085326;28;20418;-72
2021/06/08 13:11:24;;;;;;;2.90;1.90;;;;;;;;;;5083322;28;20466;-72
2021/06/08 13:13:51;;;;;;;2.13;1.93;;;;;;;;;;5081675;28;20434;-72
2021/06/08 13:16:27;;;;;;;1.90;1.80;;;;;;;;;;5080888;28;20434;-73
2021/06/08 13:18:53;;;;;;;1.93;1.83;;;;;;;;;;5071336;28;20500;-72
2021/06/08 13:21:28;;;;;;;2.30;2.10;;;;;;;;;;5083439;28;20534;-72
2021/06/08 13:24:08;;;;;;;4.23;3.17;;;;;;;;;;5083920;28;20953;-71
2021/06/08 13:26:34;;;;;;;2.57;2.37;;;;;;;;;;5101161;28;20411;-72
2021/06/08 13:29:11;;;;;;;2.63;2.07;;;;;;;;;;5081812;28;20525;-72
2021/06/08 13:31:41;;;;;;;2.97;1.67;;;;;;;;;;5081957;28;20470;-72
2021/06/08 13:34:21;;;;;;;2.30;2.10;;;;;;;;;;5080636;28;20462;-73
2021/06/08 13:36:47;;;;;;;1.90;1.80;;;;;;;;;;5081753;28;20440;-73
2021/06/08 13:39:19;;;;;;;2.00;1.70;;;;;;;;;;5076602;28;20830;-71
2021/06/08 13:41:46;;;;;;;2.20;1.63;;;;;;;;;;5081692;28;20427;-71
2021/06/08 13:44:13;;;;;;;2.00;1.80;;;;;;;;;;5082177;28;20415;-71
2021/06/08 13:46:40;;;;;;;6.90;2.30;;;;;;;;;;5081301;28;20458;-72
2021/06/08 13:49:06;;;;;;;2.50;1.90;;;;;;;;;;5080566;28;20432;-71
2021/06/08 13:51:33;;;;;;;3.27;2.00;;;;;;;;;;5081546;28;20467;-71
2021/06/08 13:54:06;;;;;;;1.53;1.43;;;;;;;;;;5081556;28;20458;-71
2021/06/08 13:56:43;;;;;;;2.00;1.80;;;;;;;;;;5083269;28;20433;-71
2021/06/08 14:01:55;;;;;;;1.77;1.63;;;;;;;;;;5080997;28;20441;-71
2021/06/08 14:04:22;;;;;;;2.17;2.00;;;;;;;;;;5080391;28;20431;-71
2021/06/08 14:06:50;;;;;;;4.73;3.87;;;;;;;;;;5080856;28;20451;-71
2021/06/08 14:09:16;;;;;;;2.63;1.83;;;;;;;;;;5081117;28;20506;-71
2021/06/08 14:11:50;;;;;;;2.00;1.90;;;;;;;;;;5084839;28;20433;-71
2021/06/08 14:14:17;;;;;;;3.10;2.50;;;;;;;;;;5081704;28;20377;-71
2021/06/08 14:16:50;;;;;;;4.60;1.77;;;;;;;;;;5080213;28;20413;-71
2021/06/08 14:19:17;;;;;;;1.87;1.77;;;;;;;;;;5081514;28;20419;-71
2021/06/08 14:21:43;;;;;;;2.40;2.20;;;;;;;;;;5081139;28;20478;-71
2021/06/08 14:24:09;;;;;;;2.20;1.70;;;;;;;;;;5080896;28;20443;-71
2021/06/08 14:26:35;;;;;;;2.50;1.73;;;;;;;;;;5083895;28;20404;-71
2021/06/08 14:29:05;;;;;;;2.50;2.00;;;;;;;;;;5081306;28;20430;-71
2021/06/08 14:31:31;;;;;;;1.63;1.53;;;;;;;;;;5080237;28;20462;-71
2021/06/08 14:33:59;;;;;;;4.70;1.60;;;;;;;;;;5079051;28;20409;-71
2021/06/08 14:36:25;;;;;;;3.73;1.87;;;;;;;;;;5081821;28;20502;-71
2021/06/08 14:38:51;;;;;;;1.83;1.73;;;;;;;;;;5082858;28;20798;-72
2021/06/08 14:41:17;;;;;;;1.90;1.80;;;;;;;;;;5083419;28;20448;-72
2021/06/08 14:43:43;;;;;;;2.10;2.00;;;;;;;;;;5079829;28;20988;-72
2021/06/08 14:46:09;;;;;;;1.63;1.53;;;;;;;;;;5078895;28;20832;-71
2021/06/08 14:48:35;;;;;;;2.67;1.50;;;;;;;;;;5080966;28;20442;-71
2021/06/08 14:51:01;;;;;;;1.90;1.80;;;;;;;;;;5080623;28;20457;-71
2021/06/08 14:53:28;;;;;;;1.80;1.70;;;;;;;;;;5081691;28;20421;-71
2021/06/08 14:55:54;;;;;;;1.60;1.50;;;;;;;;;;5082100;28;20392;-71